Iron Gate, Virginia
Current Conditions -  °F | °C
As of 7:15 AM on Monday 26 Jan 2015 (Local Time) from KHSP Reporting Station
Light Snow Light Snow  
Wind Chill: 31°   Ceiling: 200
Heat Index: 31°   Visibility: 0mi
Dew Point: 31°   Wind: 0mph
Humidity: 100%   Direction: NA
Pressure: 29.57"   Gusts: NA
Location:  37.8°N, 79.79°W
Report Text: KHSP 261215Z AUTO 00000KT M1/4SM -SN OVC002 00/00 A2957 RMK AO2 T10031003
Loading
Personal Weather Stations






























Interactive Weather Map New forecast layout! Learn more

10-Day Weather Forecast

Advertisements
Track Severe Weather on mobile